sensor_id;sensor_type;location;lat;lon;timestamp;P1;durP1;ratioP1;P2;durP2;ratioP2
2462;SDS011;1243;54.298;10.172;2023-03-14T00:02:21;11.80;;;4.80;;
2462;SDS011;1243;54.298;10.172;2023-03-14T00:04:46;18.77;;;4.83;;
2462;SDS011;1243;54.298;10.172;2023-03-14T00:07:12;15.70;;;4.07;;
2462;SDS011;1243;54.298;10.172;2023-03-14T00:09:39;7.37;;;4.10;;
2462;SDS011;1243;54.298;10.172;2023-03-14T00:12:05;21.60;;;5.70;;
2462;SDS011;1243;54.298;10.172;2023-03-14T00:14:32;11.37;;;3.83;;
2462;SDS011;1243;54.298;10.172;2023-03-14T00:16:58;16.83;;;4.73;;
2462;SDS011;1243;54.298;10.172;2023-03-14T00:19:24;13.30;;;4.67;;
2462;SDS011;1243;54.298;10.172;2023-03-14T00:21:49;10.40;;;3.60;;
2462;SDS011;1243;54.298;10.172;2023-03-14T00:24:15;11.77;;;5.20;;
2462;SDS011;1243;54.298;10.172;2023-03-14T00:26:41;22.40;;;4.50;;
2462;SDS011;1243;54.298;10.172;2023-03-14T00:29:06;23.33;;;4.63;;
2462;SDS011;1243;54.298;10.172;2023-03-14T00:31:32;14.03;;;4.90;;
2462;SDS011;1243;54.298;10.172;2023-03-14T00:33:58;18.70;;;6.13;;
2462;SDS011;1243;54.298;10.172;2023-03-14T00:36:24;15.50;;;4.10;;
2462;SDS011;1243;54.298;10.172;2023-03-14T00:38:50;23.37;;;5.60;;
2462;SDS011;1243;54.298;10.172;2023-03-14T00:41:18;11.63;;;3.90;;
2462;SDS011;1243;54.298;10.172;2023-03-14T00:43:47;13.87;;;4.70;;
2462;SDS011;1243;54.298;10.172;2023-03-14T00:46:12;34.37;;;5.10;;
2462;SDS011;1243;54.298;10.172;2023-03-14T00:48:38;12.60;;;4.83;;
2462;SDS011;1243;54.298;10.172;2023-03-14T00:51:06;15.90;;;4.10;;
2462;SDS011;1243;54.298;10.172;2023-03-14T00:53:36;12.07;;;4.00;;
2462;SDS011;1243;54.298;10.172;2023-03-14T00:56:04;10.80;;;3.80;;
2462;SDS011;1243;54.298;10.172;2023-03-14T00:58:31;16.93;;;6.07;;
2462;SDS011;1243;54.298;10.172;2023-03-14T01:00:57;12.80;;;3.60;;
2462;SDS011;1243;54.298;10.172;2023-03-14T01:03:23;12.20;;;3.60;;
2462;SDS011;1243;54.298;10.172;2023-03-14T01:05:49;10.17;;;3.63;;
2462;SDS011;1243;54.298;10.172;2023-03-14T01:08:15;11.13;;;3.73;;
2462;SDS011;1243;54.298;10.172;2023-03-14T01:10:41;16.53;;;5.07;;
2462;SDS011;1243;54.298;10.172;2023-03-14T01:13:07;17.13;;;4.13;;
2462;SDS011;1243;54.298;10.172;2023-03-14T01:15:33;9.27;;;4.37;;
2462;SDS011;1243;54.298;10.172;2023-03-14T01:17:59;14.00;;;4.23;;
2462;SDS011;1243;54.298;10.172;2023-03-14T01:20:25;15.23;;;4.00;;
2462;SDS011;1243;54.298;10.172;2023-03-14T01:22:51;12.93;;;4.70;;
2462;SDS011;1243;54.298;10.172;2023-03-14T01:25:17;13.67;;;4.07;;
2462;SDS011;1243;54.298;10.172;2023-03-14T01:27:43;10.83;;;4.43;;
2462;SDS011;1243;54.298;10.172;2023-03-14T01:30:10;9.87;;;3.83;;
2462;SDS011;1243;54.298;10.172;2023-03-14T01:32:36;12.20;;;4.70;;
2462;SDS011;1243;54.298;10.172;2023-03-14T01:35:02;11.63;;;5.43;;
2462;SDS011;1243;54.298;10.172;2023-03-14T01:37:28;16.67;;;5.20;;
2462;SDS011;1243;54.298;10.172;2023-03-14T01:39:54;18.87;;;5.77;;
2462;SDS011;1243;54.298;10.172;2023-03-14T01:42:20;12.80;;;3.70;;
2462;SDS011;1243;54.298;10.172;2023-03-14T01:44:49;6.33;;;3.13;;
2462;SDS011;1243;54.298;10.172;2023-03-14T01:47:15;7.33;;;2.97;;
2462;SDS011;1243;54.298;10.172;2023-03-14T01:49:41;14.23;;;4.20;;
2462;SDS011;1243;54.298;10.172;2023-03-14T01:52:09;12.40;;;3.97;;
2462;SDS011;1243;54.298;10.172;2023-03-14T01:57:11;18.50;;;3.60;;
2462;SDS011;1243;54.298;10.172;2023-03-14T01:59:43;10.90;;;3.90;;
2462;SDS011;1243;54.298;10.172;2023-03-14T02:02:13;9.70;;;3.47;;
2462;SDS011;1243;54.298;10.172;2023-03-14T02:04:40;12.87;;;4.30;;
2462;SDS011;1243;54.298;10.172;2023-03-14T02:07:20;15.13;;;4.47;;
2462;SDS011;1243;54.298;10.172;2023-03-14T02:09:50;9.43;;;3.73;;
2462;SDS011;1243;54.298;10.172;2023-03-14T02:12:17;11.50;;;4.40;;
2462;SDS011;1243;54.298;10.172;2023-03-14T02:14:45;10.60;;;3.83;;
2462;SDS011;1243;54.298;10.172;2023-03-14T02:17:13;19.07;;;3.63;;
2462;SDS011;1243;54.298;10.172;2023-03-14T02:22:26;14.40;;;3.63;;
2462;SDS011;1243;54.298;10.172;2023-03-14T02:27:26;13.57;;;4.50;;
2462;SDS011;1243;54.298;10.172;2023-03-14T02:29:53;7.07;;;3.30;;
2462;SDS011;1243;54.298;10.172;2023-03-14T02:32:29;10.13;;;3.87;;
2462;SDS011;1243;54.298;10.172;2023-03-14T02:34:58;10.00;;;3.70;;
2462;SDS011;1243;54.298;10.172;2023-03-14T02:37:28;15.43;;;3.70;;
2462;SDS011;1243;54.298;10.172;2023-03-14T02:40:01;8.83;;;3.63;;
2462;SDS011;1243;54.298;10.172;2023-03-14T02:42:29;15.83;;;4.77;;
2462;SDS011;1243;54.298;10.172;2023-03-14T02:44:59;11.53;;;3.77;;
2462;SDS011;1243;54.298;10.172;2023-03-14T02:47:32;23.00;;;4.80;;
2462;SDS011;1243;54.298;10.172;2023-03-14T02:50:00;19.10;;;4.23;;
2462;SDS011;1243;54.298;10.172;2023-03-14T02:52:29;8.47;;;3.17;;
2462;SDS011;1243;54.298;10.172;2023-03-14T02:54:55;11.63;;;3.83;;
2462;SDS011;1243;54.298;10.172;2023-03-14T02:57:21;7.73;;;3.27;;
2462;SDS011;1243;54.298;10.172;2023-03-14T02:59:46;10.20;;;3.90;;
2462;SDS011;1243;54.298;10.172;2023-03-14T03:02:12;12.93;;;4.10;;
2462;SDS011;1243;54.298;10.172;2023-03-14T03:04:38;18.90;;;4.30;;
2462;SDS011;1243;54.298;10.172;2023-03-14T03:07:03;7.93;;;3.27;;
2462;SDS011;1243;54.298;10.172;2023-03-14T03:09:29;27.23;;;3.63;;
2462;SDS011;1243;54.298;10.172;2023-03-14T03:11:55;12.67;;;3.23;;
2462;SDS011;1243;54.298;10.172;2023-03-14T03:14:20;19.20;;;5.00;;
2462;SDS011;1243;54.298;10.172;2023-03-14T03:16:46;17.40;;;4.23;;
2462;SDS011;1243;54.298;10.172;2023-03-14T03:19:12;11.70;;;3.80;;
2462;SDS011;1243;54.298;10.172;2023-03-14T03:21:38;5.90;;;3.00;;
2462;SDS011;1243;54.298;10.172;2023-03-14T03:24:04;6.20;;;3.07;;
2462;SDS011;1243;54.298;10.172;2023-03-14T03:26:33;15.00;;;4.30;;
2462;SDS011;1243;54.298;10.172;2023-03-14T03:29:02;8.47;;;3.30;;
2462;SDS011;1243;54.298;10.172;2023-03-14T03:31:28;8.20;;;3.40;;
2462;SDS011;1243;54.298;10.172;2023-03-14T03:33:54;16.60;;;4.67;;
2462;SDS011;1243;54.298;10.172;2023-03-14T03:36:23;7.80;;;4.03;;
2462;SDS011;1243;54.298;10.172;2023-03-14T03:38:50;14.87;;;4.47;;
2462;SDS011;1243;54.298;10.172;2023-03-14T03:41:16;9.37;;;5.23;;
2462;SDS011;1243;54.298;10.172;2023-03-14T03:43:42;9.63;;;3.90;;
2462;SDS011;1243;54.298;10.172;2023-03-14T03:46:07;11.80;;;4.00;;
2462;SDS011;1243;54.298;10.172;2023-03-14T03:48:34;6.10;;;3.80;;
2462;SDS011;1243;54.298;10.172;2023-03-14T03:51:00;18.13;;;3.73;;
2462;SDS011;1243;54.298;10.172;2023-03-14T03:53:26;4.00;;;3.50;;
2462;SDS011;1243;54.298;10.172;2023-03-14T03:55:52;9.17;;;3.80;;
2462;SDS011;1243;54.298;10.172;2023-03-14T03:58:18;10.70;;;4.37;;
2462;SDS011;1243;54.298;10.172;2023-03-14T04:00:44;6.83;;;4.13;;
2462;SDS011;1243;54.298;10.172;2023-03-14T04:03:10;13.13;;;4.43;;
2462;SDS011;1243;54.298;10.172;2023-03-14T04:05:35;10.00;;;4.00;;
2462;SDS011;1243;54.298;10.172;2023-03-14T04:08:01;11.13;;;5.70;;
2462;SDS011;1243;54.298;10.172;2023-03-14T04:10:28;7.90;;;5.10;;
2462;SDS011;1243;54.298;10.172;2023-03-14T04:12:53;6.87;;;5.67;;
2462;SDS011;1243;54.298;10.172;2023-03-14T04:15:19;15.70;;;6.20;;
2462;SDS011;1243;54.298;10.172;2023-03-14T04:17:45;13.70;;;6.37;;
2462;SDS011;1243;54.298;10.172;2023-03-14T04:20:10;13.33;;;6.80;;
2462;SDS011;1243;54.298;10.172;2023-03-14T04:22:37;8.50;;;5.70;;
2462;SDS011;1243;54.298;10.172;2023-03-14T04:25:03;9.53;;;5.80;;
2462;SDS011;1243;54.298;10.172;2023-03-14T04:27:29;9.70;;;6.03;;
2462;SDS011;1243;54.298;10.172;2023-03-14T04:29:55;13.67;;;5.47;;
2462;SDS011;1243;54.298;10.172;2023-03-14T04:32:21;7.20;;;5.90;;
2462;SDS011;1243;54.298;10.172;2023-03-14T04:34:47;9.10;;;6.50;;
2462;SDS011;1243;54.298;10.172;2023-03-14T04:37:12;6.03;;;5.50;;
2462;SDS011;1243;54.298;10.172;2023-03-14T04:39:38;10.00;;;5.60;;
2462;SDS011;1243;54.298;10.172;2023-03-14T04:42:04;5.43;;;4.97;;
2462;SDS011;1243;54.298;10.172;2023-03-14T04:44:29;9.43;;;5.70;;
2462;SDS011;1243;54.298;10.172;2023-03-14T04:46:55;6.60;;;4.80;;
2462;SDS011;1243;54.298;10.172;2023-03-14T04:49:21;11.37;;;5.13;;
2462;SDS011;1243;54.298;10.172;2023-03-14T04:51:47;7.47;;;5.47;;
2462;SDS011;1243;54.298;10.172;2023-03-14T04:54:12;7.03;;;5.40;;
2462;SDS011;1243;54.298;10.172;2023-03-14T04:56:38;8.70;;;5.73;;
2462;SDS011;1243;54.298;10.172;2023-03-14T04:59:04;7.60;;;4.50;;
2462;SDS011;1243;54.298;10.172;2023-03-14T05:01:30;6.43;;;4.03;;
2462;SDS011;1243;54.298;10.172;2023-03-14T05:03:56;11.30;;;5.00;;
2462;SDS011;1243;54.298;10.172;2023-03-14T05:06:21;4.97;;;3.70;;
2462;SDS011;1243;54.298;10.172;2023-03-14T05:08:47;4.00;;;3.53;;
2462;SDS011;1243;54.298;10.172;2023-03-14T05:11:13;5.50;;;4.10;;
2462;SDS011;1243;54.298;10.172;2023-03-14T05:13:39;6.90;;;4.70;;
2462;SDS011;1243;54.298;10.172;2023-03-14T05:16:09;7.73;;;4.60;;
2462;SDS011;1243;54.298;10.172;2023-03-14T05:18:36;11.60;;;4.60;;
2462;SDS011;1243;54.298;10.172;2023-03-14T05:21:02;8.73;;;4.70;;
2462;SDS011;1243;54.298;10.172;2023-03-14T05:23:28;3.90;;;3.60;;
2462;SDS011;1243;54.298;10.172;2023-03-14T05:25:54;4.77;;;4.47;;
2462;SDS011;1243;54.298;10.172;2023-03-14T05:28:20;7.93;;;3.07;;
2462;SDS011;1243;54.298;10.172;2023-03-14T05:30:46;13.00;;;4.43;;
2462;SDS011;1243;54.298;10.172;2023-03-14T05:33:12;2.70;;;2.50;;
2462;SDS011;1243;54.298;10.172;2023-03-14T05:35:38;5.63;;;3.30;;
2462;SDS011;1243;54.298;10.172;2023-03-14T05:38:05;4.23;;;2.90;;
2462;SDS011;1243;54.298;10.172;2023-03-14T05:40:31;2.57;;;2.40;;
2462;SDS011;1243;54.298;10.172;2023-03-14T05:42:56;5.00;;;3.93;;
2462;SDS011;1243;54.298;10.172;2023-03-14T05:45:22;6.30;;;3.13;;
2462;SDS011;1243;54.298;10.172;2023-03-14T05:47:47;4.70;;;3.53;;
2462;SDS011;1243;54.298;10.172;2023-03-14T05:50:13;3.20;;;2.50;;
2462;SDS011;1243;54.298;10.172;2023-03-14T05:52:39;4.20;;;2.60;;
2462;SDS011;1243;54.298;10.172;2023-03-14T05:55:05;3.53;;;2.67;;
2462;SDS011;1243;54.298;10.172;2023-03-14T05:57:30;7.00;;;2.53;;
2462;SDS011;1243;54.298;10.172;2023-03-14T05:59:56;3.70;;;2.80;;
2462;SDS011;1243;54.298;10.172;2023-03-14T06:02:22;6.60;;;2.10;;
2462;SDS011;1243;54.298;10.172;2023-03-14T06:04:47;2.70;;;2.50;;
2462;SDS011;1243;54.298;10.172;2023-03-14T06:07:13;5.33;;;2.67;;
2462;SDS011;1243;54.298;10.172;2023-03-14T06:09:39;5.27;;;2.83;;
2462;SDS011;1243;54.298;10.172;2023-03-14T06:12:05;4.33;;;2.80;;
2462;SDS011;1243;54.298;10.172;2023-03-14T06:14:31;5.43;;;3.43;;
2462;SDS011;1243;54.298;10.172;2023-03-14T06:16:57;2.77;;;2.50;;
2462;SDS011;1243;54.298;10.172;2023-03-14T06:19:24;12.43;;;3.90;;
2462;SDS011;1243;54.298;10.172;2023-03-14T06:21:50;3.80;;;3.20;;
2462;SDS011;1243;54.298;10.172;2023-03-14T06:24:16;2.87;;;2.60;;
2462;SDS011;1243;54.298;10.172;2023-03-14T06:26:42;4.00;;;3.47;;
2462;SDS011;1243;54.298;10.172;2023-03-14T06:29:08;8.97;;;3.43;;
2462;SDS011;1243;54.298;10.172;2023-03-14T06:31:34;12.63;;;3.80;;
2462;SDS011;1243;54.298;10.172;2023-03-14T06:34:00;8.70;;;3.73;;
2462;SDS011;1243;54.298;10.172;2023-03-14T06:36:26;5.70;;;3.87;;
2462;SDS011;1243;54.298;10.172;2023-03-14T06:38:51;4.97;;;3.93;;
2462;SDS011;1243;54.298;10.172;2023-03-14T06:41:17;10.80;;;3.97;;
2462;SDS011;1243;54.298;10.172;2023-03-14T06:43:43;10.57;;;5.50;;
2462;SDS011;1243;54.298;10.172;2023-03-14T06:46:09;7.37;;;4.17;;
2462;SDS011;1243;54.298;10.172;2023-03-14T06:48:35;9.93;;;4.50;;
2462;SDS011;1243;54.298;10.172;2023-03-14T06:51:00;6.70;;;4.13;;
2462;SDS011;1243;54.298;10.172;2023-03-14T06:53:26;10.30;;;4.60;;
2462;SDS011;1243;54.298;10.172;2023-03-14T06:55:52;4.30;;;3.83;;
2462;SDS011;1243;54.298;10.172;2023-03-14T06:58:17;6.23;;;4.27;;
2462;SDS011;1243;54.298;10.172;2023-03-14T07:00:43;8.50;;;4.03;;
2462;SDS011;1243;54.298;10.172;2023-03-14T07:03:09;5.73;;;4.20;;
2462;SDS011;1243;54.298;10.172;2023-03-14T07:05:35;6.13;;;3.70;;
2462;SDS011;1243;54.298;10.172;2023-03-14T07:08:01;6.47;;;4.57;;
2462;SDS011;1243;54.298;10.172;2023-03-14T07:10:27;5.10;;;4.20;;
2462;SDS011;1243;54.298;10.172;2023-03-14T07:12:52;7.60;;;3.33;;
2462;SDS011;1243;54.298;10.172;2023-03-14T07:15:18;9.87;;;4.57;;
2462;SDS011;1243;54.298;10.172;2023-03-14T07:17:45;6.03;;;4.70;;
2462;SDS011;1243;54.298;10.172;2023-03-14T07:20:13;4.00;;;3.70;;
2462;SDS011;1243;54.298;10.172;2023-03-14T07:22:38;6.13;;;3.73;;
2462;SDS011;1243;54.298;10.172;2023-03-14T07:25:04;5.03;;;3.27;;
2462;SDS011;1243;54.298;10.172;2023-03-14T07:27:30;10.43;;;4.80;;
2462;SDS011;1243;54.298;10.172;2023-03-14T07:29:56;13.77;;;4.10;;
2462;SDS011;1243;54.298;10.172;2023-03-14T07:32:22;5.77;;;3.70;;
2462;SDS011;1243;54.298;10.172;2023-03-14T07:34:48;9.50;;;4.63;;
2462;SDS011;1243;54.298;10.172;2023-03-14T07:37:13;6.57;;;4.07;;
2462;SDS011;1243;54.298;10.172;2023-03-14T07:39:39;4.20;;;3.53;;
2462;SDS011;1243;54.298;10.172;2023-03-14T07:42:05;6.20;;;3.50;;
2462;SDS011;1243;54.298;10.172;2023-03-14T07:44:30;4.63;;;3.90;;
2462;SDS011;1243;54.298;10.172;2023-03-14T07:46:56;4.40;;;4.00;;
2462;SDS011;1243;54.298;10.172;2023-03-14T07:49:22;7.77;;;3.17;;
2462;SDS011;1243;54.298;10.172;2023-03-14T07:51:48;7.50;;;3.83;;
2462;SDS011;1243;54.298;10.172;2023-03-14T07:54:13;6.70;;;4.73;;
2462;SDS011;1243;54.298;10.172;2023-03-14T07:56:39;9.47;;;4.67;;
2462;SDS011;1243;54.298;10.172;2023-03-14T07:59:05;5.43;;;4.40;;
2462;SDS011;1243;54.298;10.172;2023-03-14T08:01:32;4.97;;;3.93;;
2462;SDS011;1243;54.298;10.172;2023-03-14T08:03:57;5.03;;;3.70;;
2462;SDS011;1243;54.298;10.172;2023-03-14T08:06:23;5.37;;;3.50;;
2462;SDS011;1243;54.298;10.172;2023-03-14T08:08:49;6.80;;;4.07;;
2462;SDS011;1243;54.298;10.172;2023-03-14T08:11:15;3.03;;;2.70;;
2462;SDS011;1243;54.298;10.172;2023-03-14T08:13:41;3.23;;;3.03;;
2462;SDS011;1243;54.298;10.172;2023-03-14T08:16:07;7.20;;;3.93;;
2462;SDS011;1243;54.298;10.172;2023-03-14T08:18:33;5.00;;;3.47;;
2462;SDS011;1243;54.298;10.172;2023-03-14T08:20:59;4.73;;;3.47;;
2462;SDS011;1243;54.298;10.172;2023-03-14T08:23:25;5.73;;;3.50;;
2462;SDS011;1243;54.298;10.172;2023-03-14T08:25:50;4.10;;;3.40;;
2462;SDS011;1243;54.298;10.172;2023-03-14T08:28:17;4.73;;;4.10;;
2462;SDS011;1243;54.298;10.172;2023-03-14T08:30:43;3.83;;;3.33;;
2462;SDS011;1243;54.298;10.172;2023-03-14T08:33:09;3.77;;;3.10;;
2462;SDS011;1243;54.298;10.172;2023-03-14T08:35:35;3.50;;;3.23;;
2462;SDS011;1243;54.298;10.172;2023-03-14T08:38:03;5.50;;;3.10;;
2462;SDS011;1243;54.298;10.172;2023-03-14T08:40:28;7.30;;;2.97;;
2462;SDS011;1243;54.298;10.172;2023-03-14T08:42:54;3.63;;;3.40;;
2462;SDS011;1243;54.298;10.172;2023-03-14T08:45:20;6.53;;;3.37;;
2462;SDS011;1243;54.298;10.172;2023-03-14T08:47:46;10.33;;;4.03;;
2462;SDS011;1243;54.298;10.172;2023-03-14T08:50:12;7.77;;;3.20;;
2462;SDS011;1243;54.298;10.172;2023-03-14T08:52:38;3.37;;;3.07;;
2462;SDS011;1243;54.298;10.172;2023-03-14T08:55:06;3.40;;;2.50;;
2462;SDS011;1243;54.298;10.172;2023-03-14T08:57:33;3.40;;;2.33;;
2462;SDS011;1243;54.298;10.172;2023-03-14T08:59:59;4.63;;;2.10;;
2462;SDS011;1243;54.298;10.172;2023-03-14T09:02:25;3.20;;;2.10;;
2462;SDS011;1243;54.298;10.172;2023-03-14T09:04:51;1.83;;;1.73;;
2462;SDS011;1243;54.298;10.172;2023-03-14T09:07:17;2.23;;;2.03;;
2462;SDS011;1243;54.298;10.172;2023-03-14T09:09:43;2.67;;;1.87;;
2462;SDS011;1243;54.298;10.172;2023-03-14T09:12:10;1.63;;;1.53;;
2462;SDS011;1243;54.298;10.172;2023-03-14T09:14:35;2.17;;;1.97;;
2462;SDS011;1243;54.298;10.172;2023-03-14T09:17:02;1.63;;;1.40;;
2462;SDS011;1243;54.298;10.172;2023-03-14T09:19:28;1.80;;;1.70;;
2462;SDS011;1243;54.298;10.172;2023-03-14T09:21:54;3.30;;;2.00;;
2462;SDS011;1243;54.298;10.172;2023-03-14T09:24:20;3.80;;;2.20;;
2462;SDS011;1243;54.298;10.172;2023-03-14T09:26:46;2.60;;;2.20;;
2462;SDS011;1243;54.298;10.172;2023-03-14T09:29:11;2.03;;;1.93;;
2462;SDS011;1243;54.298;10.172;2023-03-14T09:31:37;2.83;;;2.63;;
2462;SDS011;1243;54.298;10.172;2023-03-14T09:34:03;1.97;;;1.87;;
2462;SDS011;1243;54.298;10.172;2023-03-14T09:36:29;1.90;;;1.80;;
2462;SDS011;1243;54.298;10.172;2023-03-14T09:38:54;1.90;;;1.80;;
2462;SDS011;1243;54.298;10.172;2023-03-14T09:41:24;3.33;;;2.03;;
2462;SDS011;1243;54.298;10.172;2023-03-14T09:43:54;2.17;;;1.60;;
2462;SDS011;1243;54.298;10.172;2023-03-14T09:46:28;2.40;;;2.20;;
2462;SDS011;1243;54.298;10.172;2023-03-14T09:48:56;2.63;;;2.30;;
2462;SDS011;1243;54.298;10.172;2023-03-14T09:51:22;3.20;;;3.00;;
2462;SDS011;1243;54.298;10.172;2023-03-14T09:53:49;2.37;;;2.17;;
2462;SDS011;1243;54.298;10.172;2023-03-14T09:56:28;2.23;;;2.07;;
2462;SDS011;1243;54.298;10.172;2023-03-14T09:59:01;3.97;;;1.70;;
2462;SDS011;1243;54.298;10.172;2023-03-14T10:01:31;3.27;;;2.67;;
2462;SDS011;1243;54.298;10.172;2023-03-14T10:04:02;2.50;;;1.80;;
2462;SDS011;1243;54.298;10.172;2023-03-14T10:06:35;2.03;;;1.93;;
2462;SDS011;1243;54.298;10.172;2023-03-14T10:09:00;3.17;;;2.00;;
2462;SDS011;1243;54.298;10.172;2023-03-14T10:11:27;4.13;;;1.97;;
2462;SDS011;1243;54.298;10.172;2023-03-14T10:14:11;3.40;;;2.37;;
2462;SDS011;1243;54.298;10.172;2023-03-14T10:16:44;2.23;;;2.03;;
2462;SDS011;1243;54.298;10.172;2023-03-14T10:19:16;3.23;;;2.67;;
2462;SDS011;1243;54.298;10.172;2023-03-14T10:21:42;3.00;;;2.37;;
2462;SDS011;1243;54.298;10.172;2023-03-14T10:24:16;2.07;;;1.87;;
2462;SDS011;1243;54.298;10.172;2023-03-14T10:26:47;1.90;;;1.80;;
2462;SDS011;1243;54.298;10.172;2023-03-14T10:29:33;1.73;;;1.63;;
2462;SDS011;1243;54.298;10.172;2023-03-14T10:32:18;2.30;;;2.10;;
2462;SDS011;1243;54.298;10.172;2023-03-14T10:34:45;1.97;;;1.87;;
2462;SDS011;1243;54.298;10.172;2023-03-14T10:37:33;2.00;;;1.90;;
2462;SDS011;1243;54.298;10.172;2023-03-14T10:40:00;2.80;;;2.07;;
2462;SDS011;1243;54.298;10.172;2023-03-14T10:42:31;1.70;;;1.60;;
2462;SDS011;1243;54.298;10.172;2023-03-14T10:47:53;2.47;;;2.00;;
2462;SDS011;1243;54.298;10.172;2023-03-14T10:52:56;6.10;;;2.20;;
2462;SDS011;1243;54.298;10.172;2023-03-14T10:55:23;2.37;;;2.13;;
2462;SDS011;1243;54.298;10.172;2023-03-14T10:57:51;5.63;;;2.50;;
2462;SDS011;1243;54.298;10.172;2023-03-14T11:00:21;4.90;;;1.83;;
2462;SDS011;1243;54.298;10.172;2023-03-14T11:11:20;5.20;;;2.60;;
2462;SDS011;1243;54.298;10.172;2023-03-14T11:16:47;6.50;;;2.43;;
2462;SDS011;1243;54.298;10.172;2023-03-14T11:19:37;6.57;;;2.90;;
2462;SDS011;1243;54.298;10.172;2023-03-14T11:22:32;2.70;;;2.50;;
2462;SDS011;1243;54.298;10.172;2023-03-14T11:30:19;5.17;;;2.20;;
2462;SDS011;1243;54.298;10.172;2023-03-14T11:33:02;6.63;;;2.67;;
2462;SDS011;1243;54.298;10.172;2023-03-14T11:35:38;6.77;;;2.07;;
2462;SDS011;1243;54.298;10.172;2023-03-14T11:38:28;6.50;;;2.33;;
2462;SDS011;1243;54.298;10.172;2023-03-14T11:40:58;5.40;;;3.07;;
2462;SDS011;1243;54.298;10.172;2023-03-14T11:46:01;5.80;;;2.63;;
2462;SDS011;1243;54.298;10.172;2023-03-14T11:51:26;6.37;;;2.77;;
2462;SDS011;1243;54.298;10.172;2023-03-14T11:54:17;8.83;;;2.90;;
2462;SDS011;1243;54.298;10.172;2023-03-14T11:56:46;10.23;;;4.10;;
2462;SDS011;1243;54.298;10.172;2023-03-14T11:59:22;4.93;;;2.97;;
2462;SDS011;1243;54.298;10.172;2023-03-14T12:07:19;7.53;;;3.03;;
2462;SDS011;1243;54.298;10.172;2023-03-14T12:09:50;5.13;;;2.30;;
2462;SDS011;1243;54.298;10.172;2023-03-14T12:12:18;7.83;;;2.50;;
2462;SDS011;1243;54.298;10.172;2023-03-14T12:14:54;6.47;;;2.27;;
2462;SDS011;1243;54.298;10.172;2023-03-14T12:17:26;5.93;;;2.77;;
2462;SDS011;1243;54.298;10.172;2023-03-14T12:20:01;5.30;;;2.47;;
2462;SDS011;1243;54.298;10.172;2023-03-14T12:22:35;9.50;;;2.50;;
2462;SDS011;1243;54.298;10.172;2023-03-14T12:30:31;2.93;;;2.70;;
2462;SDS011;1243;54.298;10.172;2023-03-14T12:35:45;7.67;;;3.60;;
2462;SDS011;1243;54.298;10.172;2023-03-14T12:43:42;6.53;;;2.57;;
2462;SDS011;1243;54.298;10.172;2023-03-14T12:48:34;5.80;;;2.40;;
2462;SDS011;1243;54.298;10.172;2023-03-14T12:51:03;5.13;;;3.63;;
2462;SDS011;1243;54.298;10.172;2023-03-14T12:58:39;8.80;;;3.93;;
2462;SDS011;1243;54.298;10.172;2023-03-14T13:01:23;7.63;;;3.00;;
2462;SDS011;1243;54.298;10.172;2023-03-14T13:12:17;5.90;;;2.73;;
2462;SDS011;1243;54.298;10.172;2023-03-14T13:14:45;5.57;;;2.80;;
2462;SDS011;1243;54.298;10.172;2023-03-14T13:17:14;10.80;;;2.40;;
2462;SDS011;1243;54.298;10.172;2023-03-14T13:19:48;15.87;;;4.07;;
2462;SDS011;1243;54.298;10.172;2023-03-14T13:22:38;11.40;;;3.30;;
2462;SDS011;1243;54.298;10.172;2023-03-14T13:25:07;9.90;;;3.00;;
2462;SDS011;1243;54.298;10.172;2023-03-14T13:27:36;8.50;;;2.50;;
2462;SDS011;1243;54.298;10.172;2023-03-14T13:30:12;5.90;;;2.20;;
2462;SDS011;1243;54.298;10.172;2023-03-14T13:32:48;7.10;;;2.60;;
2462;SDS011;1243;54.298;10.172;2023-03-14T13:35:18;6.03;;;2.23;;
2462;SDS011;1243;54.298;10.172;2023-03-14T13:37:45;7.27;;;2.37;;
2462;SDS011;1243;54.298;10.172;2023-03-14T13:40:18;9.70;;;2.63;;
2462;SDS011;1243;54.298;10.172;2023-03-14T13:42:46;2.80;;;2.20;;
2462;SDS011;1243;54.298;10.172;2023-03-14T13:45:12;2.63;;;1.90;;
2462;SDS011;1243;54.298;10.172;2023-03-14T13:47:39;14.53;;;2.53;;
2462;SDS011;1243;54.298;10.172;2023-03-14T13:50:11;4.70;;;2.33;;
2462;SDS011;1243;54.298;10.172;2023-03-14T13:52:40;3.30;;;3.00;;
2462;SDS011;1243;54.298;10.172;2023-03-14T13:55:06;6.50;;;2.07;;
2462;SDS011;1243;54.298;10.172;2023-03-14T13:57:47;7.07;;;2.50;;
2462;SDS011;1243;54.298;10.172;2023-03-14T14:00:28;2.67;;;2.23;;
2462;SDS011;1243;54.298;10.172;2023-03-14T14:02:55;2.70;;;2.10;;
2462;SDS011;1243;54.298;10.172;2023-03-14T14:05:23;3.13;;;2.50;;
2462;SDS011;1243;54.298;10.172;2023-03-14T14:07:52;4.20;;;2.13;;
2462;SDS011;1243;54.298;10.172;2023-03-14T14:10:18;4.17;;;2.10;;
2462;SDS011;1243;54.298;10.172;2023-03-14T14:12:59;1.83;;;1.73;;
2462;SDS011;1243;54.298;10.172;2023-03-14T14:15:28;6.93;;;2.40;;
2462;SDS011;1243;54.298;10.172;2023-03-14T14:18:07;3.53;;;1.80;;
2462;SDS011;1243;54.298;10.172;2023-03-14T14:20:40;4.83;;;2.60;;
2462;SDS011;1243;54.298;10.172;2023-03-14T14:23:12;8.23;;;2.83;;
2462;SDS011;1243;54.298;10.172;2023-03-14T14:25:50;3.50;;;2.17;;
2462;SDS011;1243;54.298;10.172;2023-03-14T14:31:00;5.53;;;2.27;;
2462;SDS011;1243;54.298;10.172;2023-03-14T14:33:46;3.77;;;2.43;;
2462;SDS011;1243;54.298;10.172;2023-03-14T14:36:24;4.60;;;1.90;;
2462;SDS011;1243;54.298;10.172;2023-03-14T14:38:54;6.13;;;1.43;;
2462;SDS011;1243;54.298;10.172;2023-03-14T14:41:22;3.70;;;2.23;;
2462;SDS011;1243;54.298;10.172;2023-03-14T14:43:52;3.00;;;1.87;;
2462;SDS011;1243;54.298;10.172;2023-03-14T14:46:18;5.07;;;2.03;;
2462;SDS011;1243;54.298;10.172;2023-03-14T14:48:45;4.20;;;2.50;;
2462;SDS011;1243;54.298;10.172;2023-03-14T14:51:22;6.93;;;2.13;;
2462;SDS011;1243;54.298;10.172;2023-03-14T14:53:59;6.63;;;1.87;;
2462;SDS011;1243;54.298;10.172;2023-03-14T14:56:27;5.30;;;2.27;;
2462;SDS011;1243;54.298;10.172;2023-03-14T14:58:58;3.27;;;1.97;;
2462;SDS011;1243;54.298;10.172;2023-03-14T15:01:30;4.27;;;2.67;;
2462;SDS011;1243;54.298;10.172;2023-03-14T15:03:59;4.70;;;1.80;;
2462;SDS011;1243;54.298;10.172;2023-03-14T15:13:09;4.07;;;2.30;;
2462;SDS011;1243;54.298;10.172;2023-03-14T15:15:35;11.80;;;2.07;;
2462;SDS011;1243;54.298;10.172;2023-03-14T15:18:01;5.43;;;2.60;;
2462;SDS011;1243;54.298;10.172;2023-03-14T15:20:26;2.77;;;2.57;;
2462;SDS011;1243;54.298;10.172;2023-03-14T15:22:52;10.67;;;3.10;;
2462;SDS011;1243;54.298;10.172;2023-03-14T15:25:18;5.33;;;2.53;;
2462;SDS011;1243;54.298;10.172;2023-03-14T15:27:43;12.40;;;2.40;;
2462;SDS011;1243;54.298;10.172;2023-03-14T15:30:10;11.50;;;3.17;;
2462;SDS011;1243;54.298;10.172;2023-03-14T15:32:37;9.23;;;4.30;;
2462;SDS011;1243;54.298;10.172;2023-03-14T15:35:03;4.10;;;2.17;;
2462;SDS011;1243;54.298;10.172;2023-03-14T15:37:29;7.60;;;2.20;;
2462;SDS011;1243;54.298;10.172;2023-03-14T15:39:55;4.67;;;3.03;;
2462;SDS011;1243;54.298;10.172;2023-03-14T15:42:23;5.10;;;2.07;;
2462;SDS011;1243;54.298;10.172;2023-03-14T15:44:49;2.27;;;1.87;;
2462;SDS011;1243;54.298;10.172;2023-03-14T15:47:14;7.67;;;2.13;;
2462;SDS011;1243;54.298;10.172;2023-03-14T15:49:40;8.87;;;2.20;;
2462;SDS011;1243;54.298;10.172;2023-03-14T15:52:06;2.63;;;1.97;;
2462;SDS011;1243;54.298;10.172;2023-03-14T15:54:33;7.27;;;2.00;;
2462;SDS011;1243;54.298;10.172;2023-03-14T15:56:59;2.20;;;2.00;;
2462;SDS011;1243;54.298;10.172;2023-03-14T15:59:25;8.27;;;2.77;;
2462;SDS011;1243;54.298;10.172;2023-03-14T16:01:51;6.80;;;2.27;;
2462;SDS011;1243;54.298;10.172;2023-03-14T16:04:17;6.13;;;2.90;;
2462;SDS011;1243;54.298;10.172;2023-03-14T16:06:43;7.67;;;2.53;;
2462;SDS011;1243;54.298;10.172;2023-03-14T16:09:10;6.73;;;2.60;;
2462;SDS011;1243;54.298;10.172;2023-03-14T16:11:36;4.87;;;2.13;;
2462;SDS011;1243;54.298;10.172;2023-03-14T16:14:02;9.27;;;2.80;;
2462;SDS011;1243;54.298;10.172;2023-03-14T16:16:28;11.87;;;2.87;;
2462;SDS011;1243;54.298;10.172;2023-03-14T16:18:54;8.53;;;2.67;;
2462;SDS011;1243;54.298;10.172;2023-03-14T16:21:20;5.97;;;2.77;;
2462;SDS011;1243;54.298;10.172;2023-03-14T16:23:46;6.07;;;2.63;;